Flight Track Log - Related Links

Times and Time Zones

All times are in EDT time to prevent confusion due to time zone crossing. See the SLI2200 flight status page for this flight to view local times or setup timezone preferences in your user account.

Time Position Orientation Groundspeed Altitude Reporting Facility
EDT Latitude Longitude Course Direction KTS MPH feet Rate Location/Type
Sat 08:05:00 AM 28.5827 -105.7071 118° Southeast  Level Estimated
Sat 08:06:00 AM 28.5425 -105.6215 118° Southeast  Level Estimated
Sat 08:07:00 AM 28.5023 -105.5359 118° Southeast  Level Estimated
Sat 08:08:00 AM 28.4620 -105.4503 118° Southeast  Level Estimated
Sat 08:09:00 AM 28.4217 -105.3648 118° Southeast  Level Estimated
Sat 08:10:00 AM 28.3813 -105.2794 118° Southeast  Level Estimated
Sat 08:11:00 AM 28.3409 -105.1941 118° Southeast  Level Estimated
Sat 08:12:00 AM 28.3004 -105.1088 118° Southeast  Level Estimated
Sat 08:13:00 AM 28.2598 -105.0235 118° Southeast  Level Estimated
Sat 08:14:00 AM 28.2192 -104.9384 118° Southeast  Level Estimated
Sat 08:15:00 AM 28.1786 -104.8533 118° Southeast  Level Estimated
Sat 08:16:00 AM 28.1379 -104.7683 118° Southeast  Level Estimated
Sat 08:17:00 AM 28.0972 -104.6833 119° Southeast  Level Estimated
Sat 08:18:00 AM 28.0564 -104.5984 119° Southeast  Level Estimated
Sat 08:19:00 AM 28.0155 -104.5136 119° Southeast  Level Estimated
Sat 08:20:00 AM 27.9746 -104.4288 119° Southeast  Level Estimated
Sat 08:21:00 AM 27.9336 -104.3441 119° Southeast  Level Estimated
Sat 08:22:00 AM 27.8926 -104.2595 119° Southeast  Level Estimated
Sat 08:23:00 AM 27.8515 -104.1749 119° Southeast  Level Estimated
Sat 08:24:00 AM 27.8104 -104.0904 119° Southeast  Level Estimated
Sat 08:25:00 AM 27.7693 -104.0059 119° Southeast  Level Estimated
Sat 08:26:00 AM 27.7280 -103.9215 119° Southeast  Level Estimated
Sat 08:27:00 AM 27.6868 -103.8372 119° Southeast  Level Estimated
Sat 08:28:00 AM 27.6455 -103.7529 119° Southeast  Level Estimated
Sat 08:29:00 AM 27.6041 -103.6687 119° Southeast  Level Estimated
Sat 08:30:00 AM 27.5627 -103.5846 119° Southeast  Level Estimated
Sat 08:31:00 AM 27.5212 -103.5005 119° Southeast  Level Estimated
Sat 08:32:00 AM 27.4797 -103.4165 119° Southeast  Level Estimated
Sat 08:33:00 AM 27.4381 -103.3326 119° Southeast  Level Estimated
Sat 08:34:00 AM 27.3965 -103.2487 119° Southeast  Level Estimated
Sat 08:35:00 AM 27.3548 -103.1649 119° Southeast  Level Estimated
Sat 08:36:00 AM 27.3131 -103.0812 119° Southeast  Level Estimated
Sat 08:37:00 AM 27.2713 -102.9975 119° Southeast  Level Estimated
Sat 08:38:00 AM 27.2295 -102.9139 119° Southeast  Level Estimated
Sat 08:39:00 AM 27.1876 -102.8303 119° Southeast  Level Estimated
Sat 08:40:00 AM 27.1457 -102.7468 119° Southeast  Level Estimated
Sat 08:41:00 AM 27.1037 -102.6634 119° Southeast  Level Estimated
Sat 08:42:00 AM 27.0617 -102.5800 119° Southeast  Level Estimated
Sat 08:43:00 AM 27.0196 -102.4967 120° Southeast  Level Estimated
Sat 08:44:00 AM 26.9775 -102.4134 120° Southeast  Level Estimated
Sat 08:45:00 AM 26.9354 -102.3302 120° Southeast  Level Estimated
Sat 08:46:00 AM 26.8931 -102.2471 120° Southeast  Level Estimated
Sat 08:47:00 AM 26.8509 -102.1641 120° Southeast  Level Estimated
Sat 08:48:00 AM 26.8086 -102.0811 120° Southeast  Level Estimated
Sat 08:49:00 AM 26.7662 -101.9981 120° Southeast  Level Estimated
Sat 08:50:00 AM 26.7238 -101.9152 120° Southeast  Level Estimated
Sat 08:51:00 AM 26.6813 -101.8324 120° Southeast  Level Estimated
Sat 08:52:00 AM 26.6388 -101.7497 120° Southeast  Level Estimated
Sat 08:53:00 AM 26.5963 -101.6670 120° Southeast  Level Estimated
Sat 08:54:00 AM 26.5537 -101.5844 120° Southeast  Level Estimated
Sat 08:55:00 AM 26.5110 -101.5018 120° Southeast  Level Estimated
Sat 08:56:00 AM 26.4683 -101.4193 120° Southeast  Level Estimated
Sat 08:57:00 AM 26.4256 -101.3368 120° Southeast  Level Estimated
Sat 08:58:00 AM 26.3828 -101.2544 120° Southeast  Level Estimated
Sat 08:59:00 AM 26.3399 -101.1721 120° Southeast  Level Estimated
Sat 09:00:00 AM 26.2971 -101.0899 120° Southeast  Level Estimated
Sat 09:01:00 AM 26.2541 -101.0077 120° Southeast  Level Estimated
Sat 09:02:00 AM 26.2111 -100.9255 120° Southeast  Level Estimated
Sat 09:03:00 AM 26.1681 -100.8435 120° Southeast  Level Estimated
Sat 09:04:00 AM 26.1250 -100.7614 120° Southeast  Level Estimated
Sat 09:05:00 AM 26.0819 -100.6795 120° Southeast  Level Estimated
Sat 09:06:00 AM 26.0387 -100.5976 120° Southeast  Level Estimated
Sat 09:07:00 AM 25.9955 -100.5157 120° Southeast  Level Estimated
Sat 09:08:00 AM 25.9523 -100.4340 120° Southeast  Level Estimated
Sat 09:09:00 AM 25.9090 -100.3522 120° Southeast  Level Estimated
Sat 09:10:00 AM 25.8656 -100.2706 121° Southeast  Level Estimated
Sat 09:11:00 AM 25.8222 -100.1890 121° Southeast  Level Estimated
Sat 09:12:00 AM 25.7788 -100.1074 121° Southeast  Level Estimated
Sat 09:13:00 AM 25.7785 -100.1069 121° Southeast  Level Estimated
Sat 09:14:00 AM 25.7785 -100.1069 119° Southeast  Level Estimated
Sat 09:15:00 AM 25.7785 -100.1069 119° Southeast  Level Estimated
Sat 09:16:00 AM 25.7785 -100.1069 119° Southeast  Level Estimated
Sat 09:17:00 AM 25.7785 -100.1069 119° Southeast  Level Estimated
Sat 09:18:00 AM 25.7785 -100.1069 119° Southeast  Level Estimated
Sat 09:19:00 AM 25.7785 -100.1069 119° Southeast  Level Estimated
Sat 09:20:00 AM 25.7785 -100.1069 119° Southeast  Level Estimated
Sat 09:21:00 AM 25.7785 -100.1069 119° Southeast  Level Estimated
Sat 09:22:00 AM 25.7785 -100.1069 119° Southeast  Level Estimated
Sat 09:23:00 AM 25.7785 -100.1069 119° Southeast  Level Estimated
Sat 09:24:00 AM 25.7785 -100.1069 119° Southeast  Level Estimated
Sat 09:25:00 AM 25.7785 -100.1069 119° Southeast  Level Estimated
Sat 09:26:00 AM 25.7785 -100.1069 119° Southeast  Level Estimated
Sat 09:27:00 AM 25.7785 -100.1069 119° Southeast  Level Estimated
Sat 09:28:00 AM 25.7785 -100.1069 119° Southeast  Level Estimated

Login

Don't have an account? Register now (free) for customized features, flight alerts, and more!